sensor_id;sensor_type;location;lat;lon;timestamp;P1;durP1;ratioP1;P2;durP2;ratioP2
73276;SDS011;61501;43.316;5.372;2023-06-22T00:01:50;11.30;;;5.70;;
73276;SDS011;61501;43.316;5.372;2023-06-22T00:04:16;14.02;;;6.55;;
73276;SDS011;61501;43.316;5.372;2023-06-22T00:06:42;14.07;;;6.22;;
73276;SDS011;61501;43.316;5.372;2023-06-22T00:09:08;17.60;;;6.43;;
73276;SDS011;61501;43.316;5.372;2023-06-22T00:11:35;15.30;;;6.28;;
73276;SDS011;61501;43.316;5.372;2023-06-22T00:14:01;16.42;;;6.25;;
73276;SDS011;61501;43.316;5.372;2023-06-22T00:16:27;13.35;;;6.57;;
73276;SDS011;61501;43.316;5.372;2023-06-22T00:18:53;16.63;;;5.70;;
73276;SDS011;61501;43.316;5.372;2023-06-22T00:21:19;14.25;;;6.28;;
73276;SDS011;61501;43.316;5.372;2023-06-22T00:23:45;13.95;;;6.55;;
73276;SDS011;61501;43.316;5.372;2023-06-22T00:26:12;18.83;;;7.72;;
73276;SDS011;61501;43.316;5.372;2023-06-22T00:28:38;17.67;;;6.88;;
73276;SDS011;61501;43.316;5.372;2023-06-22T00:31:04;17.05;;;6.13;;
73276;SDS011;61501;43.316;5.372;2023-06-22T00:33:30;11.10;;;6.40;;
73276;SDS011;61501;43.316;5.372;2023-06-22T00:35:56;17.35;;;6.03;;
73276;SDS011;61501;43.316;5.372;2023-06-22T00:38:22;12.18;;;5.93;;
73276;SDS011;61501;43.316;5.372;2023-06-22T00:40:48;17.33;;;6.75;;
73276;SDS011;61501;43.316;5.372;2023-06-22T00:43:14;10.65;;;5.63;;
73276;SDS011;61501;43.316;5.372;2023-06-22T00:45:40;11.02;;;5.30;;
73276;SDS011;61501;43.316;5.372;2023-06-22T00:48:06;12.27;;;5.10;;
73276;SDS011;61501;43.316;5.372;2023-06-22T00:50:33;12.25;;;4.65;;
73276;SDS011;61501;43.316;5.372;2023-06-22T00:53:06;13.60;;;5.43;;
73276;SDS011;61501;43.316;5.372;2023-06-22T00:55:33;13.13;;;4.43;;
73276;SDS011;61501;43.316;5.372;2023-06-22T00:58:02;11.43;;;4.35;;
73276;SDS011;61501;43.316;5.372;2023-06-22T01:00:30;8.77;;;4.45;;
73276;SDS011;61501;43.316;5.372;2023-06-22T01:02:57;9.63;;;4.53;;
73276;SDS011;61501;43.316;5.372;2023-06-22T01:05:23;10.02;;;4.32;;
73276;SDS011;61501;43.316;5.372;2023-06-22T01:13:07;12.23;;;4.43;;
73276;SDS011;61501;43.316;5.372;2023-06-22T01:15:42;10.70;;;4.20;;
73276;SDS011;61501;43.316;5.372;2023-06-22T01:18:11;13.73;;;4.20;;
73276;SDS011;61501;43.316;5.372;2023-06-22T01:20:37;12.20;;;4.82;;
73276;SDS011;61501;43.316;5.372;2023-06-22T01:30:46;8.45;;;3.80;;
73276;SDS011;61501;43.316;5.372;2023-06-22T01:33:12;11.55;;;4.68;;
73276;SDS011;61501;43.316;5.372;2023-06-22T01:35:39;11.98;;;4.28;;
73276;SDS011;61501;43.316;5.372;2023-06-22T01:38:05;13.45;;;3.85;;
73276;SDS011;61501;43.316;5.372;2023-06-22T01:40:32;14.68;;;4.43;;
73276;SDS011;61501;43.316;5.372;2023-06-22T01:43:02;15.18;;;4.40;;
73276;SDS011;61501;43.316;5.372;2023-06-22T01:45:29;12.50;;;4.57;;
73276;SDS011;61501;43.316;5.372;2023-06-22T01:47:55;14.50;;;4.38;;
73276;SDS011;61501;43.316;5.372;2023-06-22T01:50:22;10.25;;;3.80;;
73276;SDS011;61501;43.316;5.372;2023-06-22T01:52:48;10.93;;;4.65;;
73276;SDS011;61501;43.316;5.372;2023-06-22T01:55:14;10.15;;;4.18;;
73276;SDS011;61501;43.316;5.372;2023-06-22T01:57:40;12.57;;;5.03;;
73276;SDS011;61501;43.316;5.372;2023-06-22T02:00:13;12.07;;;4.82;;
73276;SDS011;61501;43.316;5.372;2023-06-22T02:02:45;11.30;;;5.20;;
73276;SDS011;61501;43.316;5.372;2023-06-22T02:05:15;11.60;;;5.60;;
73276;SDS011;61501;43.316;5.372;2023-06-22T02:07:47;10.85;;;5.43;;
73276;SDS011;61501;43.316;5.372;2023-06-22T02:10:15;14.23;;;5.85;;
73276;SDS011;61501;43.316;5.372;2023-06-22T02:12:42;16.52;;;5.70;;
73276;SDS011;61501;43.316;5.372;2023-06-22T02:15:09;21.88;;;6.53;;
73276;SDS011;61501;43.316;5.372;2023-06-22T02:17:35;16.17;;;5.80;;
73276;SDS011;61501;43.316;5.372;2023-06-22T02:20:04;17.50;;;6.15;;
73276;SDS011;61501;43.316;5.372;2023-06-22T02:22:32;11.55;;;5.70;;
73276;SDS011;61501;43.316;5.372;2023-06-22T02:24:58;16.70;;;5.90;;
73276;SDS011;61501;43.316;5.372;2023-06-22T02:27:24;12.57;;;5.88;;
73276;SDS011;61501;43.316;5.372;2023-06-22T02:29:50;16.98;;;5.35;;
73276;SDS011;61501;43.316;5.372;2023-06-22T02:32:16;15.15;;;5.40;;
73276;SDS011;61501;43.316;5.372;2023-06-22T02:34:43;14.43;;;5.05;;
73276;SDS011;61501;43.316;5.372;2023-06-22T02:37:13;22.27;;;6.78;;
73276;SDS011;61501;43.316;5.372;2023-06-22T02:39:42;12.65;;;5.07;;
73276;SDS011;61501;43.316;5.372;2023-06-22T02:42:08;15.80;;;5.60;;
73276;SDS011;61501;43.316;5.372;2023-06-22T02:44:35;14.00;;;5.35;;
73276;SDS011;61501;43.316;5.372;2023-06-22T02:47:01;16.30;;;5.78;;
73276;SDS011;61501;43.316;5.372;2023-06-22T02:49:27;17.80;;;5.88;;
73276;SDS011;61501;43.316;5.372;2023-06-22T02:51:53;15.57;;;6.13;;
73276;SDS011;61501;43.316;5.372;2023-06-22T02:54:20;17.08;;;6.90;;
73276;SDS011;61501;43.316;5.372;2023-06-22T02:56:46;18.65;;;7.10;;
73276;SDS011;61501;43.316;5.372;2023-06-22T02:59:13;21.42;;;7.25;;
73276;SDS011;61501;43.316;5.372;2023-06-22T03:01:39;18.33;;;7.22;;
73276;SDS011;61501;43.316;5.372;2023-06-22T03:04:05;18.05;;;6.63;;
73276;SDS011;61501;43.316;5.372;2023-06-22T03:06:32;18.63;;;6.95;;
73276;SDS011;61501;43.316;5.372;2023-06-22T03:09:02;17.73;;;6.45;;
73276;SDS011;61501;43.316;5.372;2023-06-22T03:11:32;19.67;;;6.45;;
73276;SDS011;61501;43.316;5.372;2023-06-22T03:13:59;15.57;;;6.35;;
73276;SDS011;61501;43.316;5.372;2023-06-22T03:16:25;14.10;;;6.22;;
73276;SDS011;61501;43.316;5.372;2023-06-22T03:18:51;17.20;;;6.57;;
73276;SDS011;61501;43.316;5.372;2023-06-22T03:21:18;18.95;;;6.55;;
73276;SDS011;61501;43.316;5.372;2023-06-22T03:23:44;18.35;;;7.00;;
73276;SDS011;61501;43.316;5.372;2023-06-22T03:26:10;13.77;;;6.30;;
73276;SDS011;61501;43.316;5.372;2023-06-22T03:28:37;15.73;;;6.75;;
73276;SDS011;61501;43.316;5.372;2023-06-22T03:31:03;17.20;;;6.30;;
73276;SDS011;61501;43.316;5.372;2023-06-22T03:33:31;17.13;;;6.35;;
73276;SDS011;61501;43.316;5.372;2023-06-22T03:35:57;16.33;;;6.28;;
73276;SDS011;61501;43.316;5.372;2023-06-22T03:38:23;13.27;;;6.20;;
73276;SDS011;61501;43.316;5.372;2023-06-22T03:40:49;11.80;;;5.60;;
73276;SDS011;61501;43.316;5.372;2023-06-22T03:43:15;17.30;;;5.15;;
73276;SDS011;61501;43.316;5.372;2023-06-22T03:45:41;14.80;;;5.30;;
73276;SDS011;61501;43.316;5.372;2023-06-22T03:48:10;15.32;;;5.75;;
73276;SDS011;61501;43.316;5.372;2023-06-22T03:50:36;14.65;;;5.57;;
73276;SDS011;61501;43.316;5.372;2023-06-22T03:53:02;13.80;;;4.75;;
73276;SDS011;61501;43.316;5.372;2023-06-22T03:55:28;13.60;;;4.53;;
73276;SDS011;61501;43.316;5.372;2023-06-22T03:57:54;14.05;;;4.82;;
73276;SDS011;61501;43.316;5.372;2023-06-22T04:00:22;10.75;;;4.53;;
73276;SDS011;61501;43.316;5.372;2023-06-22T04:02:48;13.98;;;4.50;;
73276;SDS011;61501;43.316;5.372;2023-06-22T04:05:14;12.68;;;4.25;;
73276;SDS011;61501;43.316;5.372;2023-06-22T04:07:42;12.98;;;4.30;;
73276;SDS011;61501;43.316;5.372;2023-06-22T04:10:08;10.90;;;4.55;;
73276;SDS011;61501;43.316;5.372;2023-06-22T04:12:34;10.95;;;3.80;;
73276;SDS011;61501;43.316;5.372;2023-06-22T04:15:00;11.25;;;4.53;;
73276;SDS011;61501;43.316;5.372;2023-06-22T04:17:26;11.00;;;3.95;;
73276;SDS011;61501;43.316;5.372;2023-06-22T04:19:52;14.77;;;4.47;;
73276;SDS011;61501;43.316;5.372;2023-06-22T04:22:18;9.68;;;4.43;;
73276;SDS011;61501;43.316;5.372;2023-06-22T04:24:44;11.18;;;4.57;;
73276;SDS011;61501;43.316;5.372;2023-06-22T04:27:11;11.80;;;4.13;;
73276;SDS011;61501;43.316;5.372;2023-06-22T04:29:37;10.60;;;4.18;;
73276;SDS011;61501;43.316;5.372;2023-06-22T04:32:03;10.98;;;4.10;;
73276;SDS011;61501;43.316;5.372;2023-06-22T04:34:30;11.55;;;4.53;;
73276;SDS011;61501;43.316;5.372;2023-06-22T04:36:56;8.18;;;3.75;;
73276;SDS011;61501;43.316;5.372;2023-06-22T04:39:22;8.13;;;4.40;;
73276;SDS011;61501;43.316;5.372;2023-06-22T04:41:48;11.32;;;4.20;;
73276;SDS011;61501;43.316;5.372;2023-06-22T04:44:19;11.15;;;5.07;;
73276;SDS011;61501;43.316;5.372;2023-06-22T04:46:51;11.98;;;4.47;;
73276;SDS011;61501;43.316;5.372;2023-06-22T04:49:24;13.30;;;4.55;;
73276;SDS011;61501;43.316;5.372;2023-06-22T04:52:16;7.63;;;4.20;;
73276;SDS011;61501;43.316;5.372;2023-06-22T04:54:42;9.77;;;4.15;;
73276;SDS011;61501;43.316;5.372;2023-06-22T04:57:13;10.45;;;4.35;;
73276;SDS011;61501;43.316;5.372;2023-06-22T04:59:40;11.27;;;4.18;;
73276;SDS011;61501;43.316;5.372;2023-06-22T05:02:07;13.95;;;5.18;;
73276;SDS011;61501;43.316;5.372;2023-06-22T05:04:33;16.20;;;4.50;;
73276;SDS011;61501;43.316;5.372;2023-06-22T05:07:06;9.68;;;4.60;;
73276;SDS011;61501;43.316;5.372;2023-06-22T05:09:32;10.52;;;4.47;;
73276;SDS011;61501;43.316;5.372;2023-06-22T05:11:58;16.00;;;4.05;;
73276;SDS011;61501;43.316;5.372;2023-06-22T05:14:27;10.73;;;4.20;;
73276;SDS011;61501;43.316;5.372;2023-06-22T05:16:53;10.70;;;4.50;;
73276;SDS011;61501;43.316;5.372;2023-06-22T05:19:19;10.07;;;3.90;;
73276;SDS011;61501;43.316;5.372;2023-06-22T05:21:45;9.27;;;4.20;;
73276;SDS011;61501;43.316;5.372;2023-06-22T05:24:11;9.63;;;4.60;;
73276;SDS011;61501;43.316;5.372;2023-06-22T05:26:37;9.77;;;3.75;;
73276;SDS011;61501;43.316;5.372;2023-06-22T05:29:03;10.20;;;3.90;;
73276;SDS011;61501;43.316;5.372;2023-06-22T05:31:29;12.80;;;4.00;;
73276;SDS011;61501;43.316;5.372;2023-06-22T05:33:55;8.25;;;4.05;;
73276;SDS011;61501;43.316;5.372;2023-06-22T05:36:21;9.73;;;4.13;;
73276;SDS011;61501;43.316;5.372;2023-06-22T05:38:51;8.43;;;3.55;;
73276;SDS011;61501;43.316;5.372;2023-06-22T05:41:17;14.65;;;3.83;;
73276;SDS011;61501;43.316;5.372;2023-06-22T05:43:43;13.80;;;4.25;;
73276;SDS011;61501;43.316;5.372;2023-06-22T05:46:09;11.20;;;4.13;;
73276;SDS011;61501;43.316;5.372;2023-06-22T05:48:35;8.48;;;4.22;;
73276;SDS011;61501;43.316;5.372;2023-06-22T05:51:01;10.77;;;4.68;;
73276;SDS011;61501;43.316;5.372;2023-06-22T05:53:27;8.05;;;4.30;;
73276;SDS011;61501;43.316;5.372;2023-06-22T05:55:53;9.52;;;4.47;;
73276;SDS011;61501;43.316;5.372;2023-06-22T05:58:19;9.23;;;4.30;;
73276;SDS011;61501;43.316;5.372;2023-06-22T06:00:45;7.78;;;3.97;;
73276;SDS011;61501;43.316;5.372;2023-06-22T06:03:11;9.50;;;3.78;;
73276;SDS011;61501;43.316;5.372;2023-06-22T06:05:37;7.50;;;3.63;;
73276;SDS011;61501;43.316;5.372;2023-06-22T06:08:04;12.85;;;4.80;;
73276;SDS011;61501;43.316;5.372;2023-06-22T06:10:31;14.23;;;4.18;;
73276;SDS011;61501;43.316;5.372;2023-06-22T06:12:58;8.90;;;4.07;;
73276;SDS011;61501;43.316;5.372;2023-06-22T06:15:24;9.68;;;4.00;;
73276;SDS011;61501;43.316;5.372;2023-06-22T06:17:53;6.40;;;3.83;;
73276;SDS011;61501;43.316;5.372;2023-06-22T06:20:19;10.23;;;3.90;;
73276;SDS011;61501;43.316;5.372;2023-06-22T06:22:46;8.68;;;3.70;;
73276;SDS011;61501;43.316;5.372;2023-06-22T06:25:12;7.70;;;3.80;;
73276;SDS011;61501;43.316;5.372;2023-06-22T06:27:44;13.45;;;4.22;;
73276;SDS011;61501;43.316;5.372;2023-06-22T06:30:11;26.00;;;4.22;;
73276;SDS011;61501;43.316;5.372;2023-06-22T06:32:37;13.60;;;4.53;;
73276;SDS011;61501;43.316;5.372;2023-06-22T06:35:07;17.23;;;4.68;;
73276;SDS011;61501;43.316;5.372;2023-06-22T06:37:37;11.23;;;4.35;;
73276;SDS011;61501;43.316;5.372;2023-06-22T06:40:04;10.18;;;4.00;;
73276;SDS011;61501;43.316;5.372;2023-06-22T06:42:32;11.23;;;3.80;;
73276;SDS011;61501;43.316;5.372;2023-06-22T06:44:58;7.00;;;3.83;;
73276;SDS011;61501;43.316;5.372;2023-06-22T06:47:24;9.82;;;4.03;;
73276;SDS011;61501;43.316;5.372;2023-06-22T06:49:50;8.88;;;3.50;;
73276;SDS011;61501;43.316;5.372;2023-06-22T06:52:16;10.02;;;4.20;;
73276;SDS011;61501;43.316;5.372;2023-06-22T06:54:42;11.80;;;4.55;;
73276;SDS011;61501;43.316;5.372;2023-06-22T06:57:08;9.75;;;4.63;;
73276;SDS011;61501;43.316;5.372;2023-06-22T06:59:35;9.38;;;4.05;;
73276;SDS011;61501;43.316;5.372;2023-06-22T07:02:01;15.05;;;4.60;;
73276;SDS011;61501;43.316;5.372;2023-06-22T07:04:27;14.07;;;3.75;;
73276;SDS011;61501;43.316;5.372;2023-06-22T07:06:53;13.27;;;4.45;;
73276;SDS011;61501;43.316;5.372;2023-06-22T07:09:19;8.77;;;4.32;;
73276;SDS011;61501;43.316;5.372;2023-06-22T07:11:45;8.38;;;3.78;;
73276;SDS011;61501;43.316;5.372;2023-06-22T07:14:11;10.20;;;4.20;;
73276;SDS011;61501;43.316;5.372;2023-06-22T07:16:37;15.40;;;4.50;;
73276;SDS011;61501;43.316;5.372;2023-06-22T07:19:03;11.63;;;4.60;;
73276;SDS011;61501;43.316;5.372;2023-06-22T07:21:29;16.48;;;4.40;;
73276;SDS011;61501;43.316;5.372;2023-06-22T07:23:55;10.20;;;4.60;;
73276;SDS011;61501;43.316;5.372;2023-06-22T07:26:21;13.00;;;4.40;;
73276;SDS011;61501;43.316;5.372;2023-06-22T07:28:47;17.15;;;4.63;;
73276;SDS011;61501;43.316;5.372;2023-06-22T07:31:15;14.25;;;4.95;;
73276;SDS011;61501;43.316;5.372;2023-06-22T07:33:41;14.65;;;4.82;;
73276;SDS011;61501;43.316;5.372;2023-06-22T07:36:07;16.70;;;4.90;;
73276;SDS011;61501;43.316;5.372;2023-06-22T07:38:33;15.13;;;5.05;;
73276;SDS011;61501;43.316;5.372;2023-06-22T07:41:00;15.43;;;5.00;;
73276;SDS011;61501;43.316;5.372;2023-06-22T07:43:26;16.08;;;5.05;;
73276;SDS011;61501;43.316;5.372;2023-06-22T07:45:52;15.90;;;5.30;;
73276;SDS011;61501;43.316;5.372;2023-06-22T07:48:22;14.70;;;5.28;;
73276;SDS011;61501;43.316;5.372;2023-06-22T07:50:48;8.48;;;4.30;;
73276;SDS011;61501;43.316;5.372;2023-06-22T07:53:14;12.90;;;4.45;;
73276;SDS011;61501;43.316;5.372;2023-06-22T07:55:40;12.25;;;4.75;;
73276;SDS011;61501;43.316;5.372;2023-06-22T07:58:06;12.60;;;4.70;;
73276;SDS011;61501;43.316;5.372;2023-06-22T08:00:33;10.77;;;4.60;;
73276;SDS011;61501;43.316;5.372;2023-06-22T08:02:59;14.50;;;4.68;;
73276;SDS011;61501;43.316;5.372;2023-06-22T08:05:28;10.65;;;4.50;;
73276;SDS011;61501;43.316;5.372;2023-06-22T08:07:55;12.23;;;4.43;;
73276;SDS011;61501;43.316;5.372;2023-06-22T08:10:21;9.73;;;4.00;;
73276;SDS011;61501;43.316;5.372;2023-06-22T08:12:47;8.52;;;4.20;;
73276;SDS011;61501;43.316;5.372;2023-06-22T08:15:13;11.77;;;4.38;;
73276;SDS011;61501;43.316;5.372;2023-06-22T08:17:39;11.38;;;4.60;;
73276;SDS011;61501;43.316;5.372;2023-06-22T08:20:06;11.25;;;4.70;;
73276;SDS011;61501;43.316;5.372;2023-06-22T08:22:39;11.13;;;4.82;;
73276;SDS011;61501;43.316;5.372;2023-06-22T08:25:05;10.60;;;4.57;;
73276;SDS011;61501;43.316;5.372;2023-06-22T08:27:31;11.07;;;4.32;;
73276;SDS011;61501;43.316;5.372;2023-06-22T08:29:58;14.45;;;4.28;;
73276;SDS011;61501;43.316;5.372;2023-06-22T08:32:25;10.13;;;4.57;;
73276;SDS011;61501;43.316;5.372;2023-06-22T08:34:52;11.65;;;5.00;;
73276;SDS011;61501;43.316;5.372;2023-06-22T08:37:18;10.65;;;4.65;;
73276;SDS011;61501;43.316;5.372;2023-06-22T08:39:44;9.60;;;4.20;;
73276;SDS011;61501;43.316;5.372;2023-06-22T08:42:14;11.50;;;5.07;;
73276;SDS011;61501;43.316;5.372;2023-06-22T08:44:40;14.93;;;4.55;;
73276;SDS011;61501;43.316;5.372;2023-06-22T08:47:06;12.48;;;4.45;;
73276;SDS011;61501;43.316;5.372;2023-06-22T08:49:32;10.45;;;4.45;;
73276;SDS011;61501;43.316;5.372;2023-06-22T08:51:58;11.60;;;4.50;;
73276;SDS011;61501;43.316;5.372;2023-06-22T08:54:24;9.45;;;4.28;;
73276;SDS011;61501;43.316;5.372;2023-06-22T08:56:50;8.23;;;5.15;;
73276;SDS011;61501;43.316;5.372;2023-06-22T08:59:16;13.20;;;5.85;;
73276;SDS011;61501;43.316;5.372;2023-06-22T09:01:42;8.82;;;4.30;;
73276;SDS011;61501;43.316;5.372;2023-06-22T09:04:10;16.45;;;5.65;;
73276;SDS011;61501;43.316;5.372;2023-06-22T09:06:37;12.02;;;4.45;;
73276;SDS011;61501;43.316;5.372;2023-06-22T09:09:09;9.40;;;4.88;;
73276;SDS011;61501;43.316;5.372;2023-06-22T09:11:35;13.20;;;4.82;;
73276;SDS011;61501;43.316;5.372;2023-06-22T09:14:01;11.40;;;4.70;;
73276;SDS011;61501;43.316;5.372;2023-06-22T09:16:28;15.95;;;5.45;;
73276;SDS011;61501;43.316;5.372;2023-06-22T09:18:54;12.43;;;4.65;;
73276;SDS011;61501;43.316;5.372;2023-06-22T09:21:20;12.73;;;5.05;;
73276;SDS011;61501;43.316;5.372;2023-06-22T09:23:47;13.70;;;5.32;;
73276;SDS011;61501;43.316;5.372;2023-06-22T09:26:16;14.38;;;5.20;;
73276;SDS011;61501;43.316;5.372;2023-06-22T09:28:42;13.80;;;5.85;;
73276;SDS011;61501;43.316;5.372;2023-06-22T09:31:08;11.85;;;5.22;;
73276;SDS011;61501;43.316;5.372;2023-06-22T09:33:35;14.88;;;5.90;;
73276;SDS011;61501;43.316;5.372;2023-06-22T09:36:01;11.73;;;6.25;;
73276;SDS011;61501;43.316;5.372;2023-06-22T09:38:27;15.00;;;5.32;;
73276;SDS011;61501;43.316;5.372;2023-06-22T09:40:53;12.73;;;5.68;;
73276;SDS011;61501;43.316;5.372;2023-06-22T09:43:19;16.25;;;5.65;;
73276;SDS011;61501;43.316;5.372;2023-06-22T09:45:45;13.35;;;5.72;;
73276;SDS011;61501;43.316;5.372;2023-06-22T09:48:11;11.32;;;5.30;;
73276;SDS011;61501;43.316;5.372;2023-06-22T09:50:37;16.48;;;6.43;;
73276;SDS011;61501;43.316;5.372;2023-06-22T09:53:03;14.02;;;5.82;;
73276;SDS011;61501;43.316;5.372;2023-06-22T09:55:29;15.65;;;5.53;;
73276;SDS011;61501;43.316;5.372;2023-06-22T09:57:55;17.27;;;6.65;;
73276;SDS011;61501;43.316;5.372;2023-06-22T10:00:21;15.60;;;6.05;;
73276;SDS011;61501;43.316;5.372;2023-06-22T10:02:47;13.93;;;5.13;;
73276;SDS011;61501;43.316;5.372;2023-06-22T10:05:13;14.25;;;4.90;;
73276;SDS011;61501;43.316;5.372;2023-06-22T10:07:40;14.05;;;5.18;;
73276;SDS011;61501;43.316;5.372;2023-06-22T10:10:08;21.40;;;5.68;;
73276;SDS011;61501;43.316;5.372;2023-06-22T10:12:34;13.15;;;5.13;;
73276;SDS011;61501;43.316;5.372;2023-06-22T10:15:00;11.52;;;5.10;;
73276;SDS011;61501;43.316;5.372;2023-06-22T10:17:27;18.65;;;4.72;;
73276;SDS011;61501;43.316;5.372;2023-06-22T10:19:52;15.35;;;4.88;;
73276;SDS011;61501;43.316;5.372;2023-06-22T10:22:18;17.65;;;6.90;;
73276;SDS011;61501;43.316;5.372;2023-06-22T10:24:44;16.13;;;7.03;;
73276;SDS011;61501;43.316;5.372;2023-06-22T10:27:11;16.00;;;7.43;;
73276;SDS011;61501;43.316;5.372;2023-06-22T10:29:38;18.80;;;8.07;;
73276;SDS011;61501;43.316;5.372;2023-06-22T10:32:04;20.00;;;8.93;;
73276;SDS011;61501;43.316;5.372;2023-06-22T10:34:31;19.55;;;9.30;;
73276;SDS011;61501;43.316;5.372;2023-06-22T10:36:57;20.65;;;8.85;;
73276;SDS011;61501;43.316;5.372;2023-06-22T10:39:23;22.17;;;9.50;;
73276;SDS011;61501;43.316;5.372;2023-06-22T10:41:49;22.50;;;9.40;;
73276;SDS011;61501;43.316;5.372;2023-06-22T10:44:27;15.13;;;7.40;;
73276;SDS011;61501;43.316;5.372;2023-06-22T10:46:53;13.95;;;7.28;;
73276;SDS011;61501;43.316;5.372;2023-06-22T10:49:19;21.15;;;8.65;;
73276;SDS011;61501;43.316;5.372;2023-06-22T10:51:45;16.73;;;7.88;;
73276;SDS011;61501;43.316;5.372;2023-06-22T10:54:11;18.83;;;7.70;;
73276;SDS011;61501;43.316;5.372;2023-06-22T10:56:41;19.50;;;8.30;;
73276;SDS011;61501;43.316;5.372;2023-06-22T10:59:07;19.08;;;7.53;;
73276;SDS011;61501;43.316;5.372;2023-06-22T11:01:33;15.38;;;7.63;;
73276;SDS011;61501;43.316;5.372;2023-06-22T11:03:59;16.77;;;7.78;;
73276;SDS011;61501;43.316;5.372;2023-06-22T11:06:25;15.57;;;7.05;;
73276;SDS011;61501;43.316;5.372;2023-06-22T11:08:51;19.70;;;6.72;;
73276;SDS011;61501;43.316;5.372;2023-06-22T11:11:17;18.52;;;6.72;;
73276;SDS011;61501;43.316;5.372;2023-06-22T11:13:43;20.15;;;6.85;;
73276;SDS011;61501;43.316;5.372;2023-06-22T11:16:10;17.23;;;7.03;;
73276;SDS011;61501;43.316;5.372;2023-06-22T11:18:36;14.70;;;7.35;;
73276;SDS011;61501;43.316;5.372;2023-06-22T11:21:02;19.98;;;6.90;;
73276;SDS011;61501;43.316;5.372;2023-06-22T11:23:28;21.90;;;8.27;;
73276;SDS011;61501;43.316;5.372;2023-06-22T11:25:54;16.75;;;7.90;;
73276;SDS011;61501;43.316;5.372;2023-06-22T11:28:20;16.15;;;8.27;;
73276;SDS011;61501;43.316;5.372;2023-06-22T11:30:46;17.95;;;7.82;;
73276;SDS011;61501;43.316;5.372;2023-06-22T11:33:12;20.40;;;8.15;;
73276;SDS011;61501;43.316;5.372;2023-06-22T11:35:38;18.23;;;8.15;;
73276;SDS011;61501;43.316;5.372;2023-06-22T11:38:05;15.43;;;6.93;;
73276;SDS011;61501;43.316;5.372;2023-06-22T11:40:31;19.73;;;7.57;;
73276;SDS011;61501;43.316;5.372;2023-06-22T11:42:57;14.93;;;6.85;;
73276;SDS011;61501;43.316;5.372;2023-06-22T11:45:22;16.65;;;6.30;;
73276;SDS011;61501;43.316;5.372;2023-06-22T11:47:49;19.38;;;7.55;;
73276;SDS011;61501;43.316;5.372;2023-06-22T11:50:15;15.88;;;6.60;;
73276;SDS011;61501;43.316;5.372;2023-06-22T11:52:41;20.20;;;7.63;;
73276;SDS011;61501;43.316;5.372;2023-06-22T11:55:07;13.45;;;6.47;;
73276;SDS011;61501;43.316;5.372;2023-06-22T11:57:34;23.98;;;8.23;;
73276;SDS011;61501;43.316;5.372;2023-06-22T12:00:00;29.05;;;10.25;;
73276;SDS011;61501;43.316;5.372;2023-06-22T12:02:26;19.10;;;7.97;;
73276;SDS011;61501;43.316;5.372;2023-06-22T12:04:52;18.15;;;6.90;;
73276;SDS011;61501;43.316;5.372;2023-06-22T12:07:20;17.85;;;7.57;;
73276;SDS011;61501;43.316;5.372;2023-06-22T12:09:46;19.80;;;7.80;;
73276;SDS011;61501;43.316;5.372;2023-06-22T12:12:12;18.05;;;7.63;;
73276;SDS011;61501;43.316;5.372;2023-06-22T12:14:38;20.33;;;8.75;;
73276;SDS011;61501;43.316;5.372;2023-06-22T12:17:04;21.02;;;8.45;;
73276;SDS011;61501;43.316;5.372;2023-06-22T12:19:30;22.50;;;8.23;;
73276;SDS011;61501;43.316;5.372;2023-06-22T12:21:56;19.27;;;7.53;;
73276;SDS011;61501;43.316;5.372;2023-06-22T12:24:22;21.80;;;7.25;;
73276;SDS011;61501;43.316;5.372;2023-06-22T12:26:48;15.23;;;7.38;;
73276;SDS011;61501;43.316;5.372;2023-06-22T12:29:14;18.23;;;7.63;;
73276;SDS011;61501;43.316;5.372;2023-06-22T12:31:40;24.52;;;7.93;;
73276;SDS011;61501;43.316;5.372;2023-06-22T12:34:06;18.90;;;8.05;;
73276;SDS011;61501;43.316;5.372;2023-06-22T12:36:32;12.52;;;5.60;;
73276;SDS011;61501;43.316;5.372;2023-06-22T12:38:58;16.83;;;6.90;;
73276;SDS011;61501;43.316;5.372;2023-06-22T12:41:24;17.70;;;6.45;;
73276;SDS011;61501;43.316;5.372;2023-06-22T12:43:50;16.13;;;6.68;;
73276;SDS011;61501;43.316;5.372;2023-06-22T12:46:16;18.17;;;6.65;;
73276;SDS011;61501;43.316;5.372;2023-06-22T12:48:42;19.85;;;6.15;;
73276;SDS011;61501;43.316;5.372;2023-06-22T12:51:09;12.90;;;5.80;;
73276;SDS011;61501;43.316;5.372;2023-06-22T12:53:35;20.35;;;6.47;;
73276;SDS011;61501;43.316;5.372;2023-06-22T12:56:01;15.27;;;6.50;;
73276;SDS011;61501;43.316;5.372;2023-06-22T12:58:27;17.88;;;6.65;;
73276;SDS011;61501;43.316;5.372;2023-06-22T13:00:53;16.08;;;6.25;;
73276;SDS011;61501;43.316;5.372;2023-06-22T13:03:19;21.52;;;6.53;;
73276;SDS011;61501;43.316;5.372;2023-06-22T13:05:45;16.50;;;6.38;;
73276;SDS011;61501;43.316;5.372;2023-06-22T13:08:11;17.63;;;6.47;;
73276;SDS011;61501;43.316;5.372;2023-06-22T13:10:38;17.25;;;6.40;;
73276;SDS011;61501;43.316;5.372;2023-06-22T13:13:04;17.75;;;6.47;;
73276;SDS011;61501;43.316;5.372;2023-06-22T13:15:30;17.77;;;6.75;;
73276;SDS011;61501;43.316;5.372;2023-06-22T13:17:56;19.35;;;6.45;;
73276;SDS011;61501;43.316;5.372;2023-06-22T13:20:22;17.35;;;6.28;;
73276;SDS011;61501;43.316;5.372;2023-06-22T13:22:48;16.88;;;6.78;;
73276;SDS011;61501;43.316;5.372;2023-06-22T13:25:14;16.90;;;6.18;;
73276;SDS011;61501;43.316;5.372;2023-06-22T13:27:44;15.32;;;6.25;;
73276;SDS011;61501;43.316;5.372;2023-06-22T13:30:10;20.20;;;6.28;;
73276;SDS011;61501;43.316;5.372;2023-06-22T13:32:36;18.95;;;6.30;;
73276;SDS011;61501;43.316;5.372;2023-06-22T13:35:02;14.43;;;5.85;;
73276;SDS011;61501;43.316;5.372;2023-06-22T13:37:28;15.15;;;5.50;;
73276;SDS011;61501;43.316;5.372;2023-06-22T13:39:54;11.88;;;6.25;;
73276;SDS011;61501;43.316;5.372;2023-06-22T13:42:21;12.90;;;5.47;;
73276;SDS011;61501;43.316;5.372;2023-06-22T13:44:47;13.75;;;5.68;;
73276;SDS011;61501;43.316;5.372;2023-06-22T13:47:13;16.20;;;6.10;;
73276;SDS011;61501;43.316;5.372;2023-06-22T13:49:39;16.02;;;5.72;;
73276;SDS011;61501;43.316;5.372;2023-06-22T13:52:05;12.38;;;5.60;;
73276;SDS011;61501;43.316;5.372;2023-06-22T13:54:35;22.23;;;6.72;;
73276;SDS011;61501;43.316;5.372;2023-06-22T13:57:01;17.13;;;6.53;;
73276;SDS011;61501;43.316;5.372;2023-06-22T13:59:27;15.10;;;5.85;;
73276;SDS011;61501;43.316;5.372;2023-06-22T14:01:53;14.57;;;5.95;;
73276;SDS011;61501;43.316;5.372;2023-06-22T14:04:19;23.40;;;6.20;;
73276;SDS011;61501;43.316;5.372;2023-06-22T14:06:45;15.18;;;5.95;;
73276;SDS011;61501;43.316;5.372;2023-06-22T14:09:11;19.15;;;6.13;;
73276;SDS011;61501;43.316;5.372;2023-06-22T14:11:37;19.50;;;7.10;;
73276;SDS011;61501;43.316;5.372;2023-06-22T14:14:03;19.55;;;6.45;;
73276;SDS011;61501;43.316;5.372;2023-06-22T14:16:29;14.85;;;6.65;;
73276;SDS011;61501;43.316;5.372;2023-06-22T14:18:55;16.60;;;7.03;;
73276;SDS011;61501;43.316;5.372;2023-06-22T14:21:21;16.38;;;7.30;;
73276;SDS011;61501;43.316;5.372;2023-06-22T14:23:47;17.58;;;7.28;;
73276;SDS011;61501;43.316;5.372;2023-06-22T14:26:17;20.00;;;6.53;;
73276;SDS011;61501;43.316;5.372;2023-06-22T14:28:46;19.40;;;7.32;;
73276;SDS011;61501;43.316;5.372;2023-06-22T14:31:16;15.70;;;6.78;;
73276;SDS011;61501;43.316;5.372;2023-06-22T14:33:46;16.67;;;7.25;;
73276;SDS011;61501;43.316;5.372;2023-06-22T14:36:13;18.55;;;7.00;;
73276;SDS011;61501;43.316;5.372;2023-06-22T14:38:39;22.30;;;7.50;;
73276;SDS011;61501;43.316;5.372;2023-06-22T14:41:05;19.98;;;7.05;;
73276;SDS011;61501;43.316;5.372;2023-06-22T14:43:31;16.45;;;6.75;;
73276;SDS011;61501;43.316;5.372;2023-06-22T14:45:57;18.52;;;7.35;;